Time;durP1;ratioP1;P1;durP2;ratioP2;P2;SDS_P1;SDS_P2;PMS_P1;PMS_P2;Temp;Humidity;BMP_temperature;BMP_pressure;BME280_temperature;BME280_humidity;BME280_pressure;Samples;Min_cycle;Max_cycle;Signal;HPM_P1;HPM_P2
2023/02/10 03:01:35;;;;;;;33.77;25.40;;;-4.00;99.90;;;;;;5545959;23;20484;-78
2023/02/10 03:04:03;;;;;;;30.03;24.47;;;-4.00;99.90;;;;;;4941062;29;20460;-78
2023/02/10 03:06:30;;;;;;;32.60;24.20;;;-4.00;99.90;;;;;;4947079;29;20552;-77
2023/02/10 03:08:57;;;;;;;34.17;25.43;;;-4.00;99.90;;;;;;4945562;28;20444;-78
2023/02/10 03:11:24;;;;;;;28.03;22.30;;;-3.90;99.90;;;;;;4946230;29;21094;-78
2023/02/10 03:13:51;;;;;;;32.80;23.27;;;-4.00;99.90;;;;;;4946277;29;20470;-79
2023/02/10 03:16:18;;;;;;;32.83;25.50;;;-4.10;99.90;;;;;;4974403;23;20922;-73
2023/02/10 03:18:46;;;;;;;38.07;26.33;;;-4.20;99.90;;;;;;4964886;28;20444;-73
2023/02/10 03:21:13;;;;;;;36.90;26.90;;;-4.10;99.90;;;;;;4957739;28;20462;-74
2023/02/10 03:23:40;;;;;;;37.47;25.80;;;-4.20;99.90;;;;;;4963283;28;20520;-73
2023/02/10 03:26:07;;;;;;;32.33;25.20;;;-4.20;99.90;;;;;;4955079;28;20518;-74
2023/02/10 03:28:34;;;;;;;32.23;24.23;;;-4.20;99.90;;;;;;4945657;28;20438;-73
2023/02/10 03:31:04;;;;;;;33.27;26.33;;;-4.20;99.90;;;;;;4943500;29;20970;-73
2023/02/10 03:33:31;;;;;;;38.40;25.77;;;-4.30;99.90;;;;;;4938217;29;20490;-73
2023/02/10 03:35:59;;;;;;;35.17;25.83;;;-4.30;99.90;;;;;;4945115;29;20486;-72
2023/02/10 03:38:26;;;;;;;36.13;26.63;;;-4.30;99.90;;;;;;4948017;29;20522;-73
2023/02/10 03:40:54;;;;;;;37.50;25.77;;;-4.30;99.90;;;;;;4944131;29;20509;-77
2023/02/10 03:43:22;;;;;;;40.90;26.70;;;-4.30;99.90;;;;;;4941217;28;20784;-73
2023/02/10 03:45:49;;;;;;;29.23;24.97;;;-4.30;99.90;;;;;;4940710;28;20840;-73
2023/02/10 03:48:16;;;;;;;39.27;27.23;;;-4.40;99.90;;;;;;4946980;29;20443;-73
2023/02/10 03:50:43;;;;;;;35.90;27.03;;;-4.40;99.90;;;;;;4945202;28;20470;-72
2023/02/10 03:53:11;;;;;;;33.67;25.07;;;-4.40;99.90;;;;;;4942860;29;20447;-75
2023/02/10 03:55:38;;;;;;;44.17;30.10;;;-4.40;99.90;;;;;;4933768;29;20975;-76
2023/02/10 03:58:05;;;;;;;46.70;30.10;;;-4.40;99.90;;;;;;4943775;29;20457;-74
2023/02/10 04:00:32;;;;;;;50.90;31.60;;;-4.40;99.90;;;;;;4927214;29;20534;-73
2023/02/10 04:02:59;;;;;;;35.57;28.73;;;-4.30;99.90;;;;;;4933901;29;20876;-74
2023/02/10 04:05:26;;;;;;;40.40;28.03;;;-4.30;99.90;;;;;;4939311;28;21044;-74
2023/02/10 04:07:52;;;;;;;43.10;29.83;;;-4.30;99.90;;;;;;4946454;28;20461;-74
2023/02/10 04:10:21;;;;;;;48.40;29.33;;;-4.20;99.90;;;;;;4940315;28;20443;-73
2023/02/10 04:12:48;;;;;;;45.37;29.90;;;-4.10;99.90;;;;;;4935637;28;20469;-74
2023/02/10 04:15:15;;;;;;;40.27;29.20;;;-4.10;99.90;;;;;;4935254;29;21001;-73
2023/02/10 04:17:42;;;;;;;38.03;27.90;;;-4.10;99.90;;;;;;4936769;29;20502;-73
2023/02/10 04:20:09;;;;;;;34.77;27.40;;;-4.10;99.90;;;;;;4944434;29;20447;-73
2023/02/10 04:22:36;;;;;;;41.70;30.63;;;-4.10;99.90;;;;;;4941589;29;20447;-76
2023/02/10 04:25:03;;;;;;;37.10;28.50;;;-4.00;99.90;;;;;;4942635;29;20977;-75
2023/02/10 04:27:31;;;;;;;45.37;31.60;;;-4.00;99.90;;;;;;4941174;29;20489;-75
2023/02/10 04:29:58;;;;;;;40.67;29.97;;;-4.00;99.90;;;;;;4940231;28;20862;-76
2023/02/10 04:32:25;;;;;;;43.53;28.07;;;-4.00;99.90;;;;;;4946628;29;20502;-74
2023/02/10 04:34:52;;;;;;;46.63;29.90;;;-4.00;99.90;;;;;;4943884;29;20554;-76
2023/02/10 04:37:19;;;;;;;38.30;28.27;;;-4.00;99.90;;;;;;4944472;28;20502;-77
2023/02/10 04:39:45;;;;;;;39.60;28.13;;;-4.00;99.90;;;;;;4943479;29;20443;-77
2023/02/10 04:42:12;;;;;;;35.73;27.83;;;-4.00;99.90;;;;;;4938281;28;20551;-73
2023/02/10 04:44:40;;;;;;;43.00;29.07;;;-4.00;99.90;;;;;;4946991;29;20547;-74
2023/02/10 04:47:07;;;;;;;46.30;27.27;;;-3.90;99.90;;;;;;4950458;28;20542;-73
2023/02/10 04:49:34;;;;;;;35.07;26.70;;;-3.90;99.90;;;;;;4943888;29;20494;-73
2023/02/10 04:52:01;;;;;;;40.47;29.07;;;-4.00;99.90;;;;;;4941061;29;20494;-73
2023/02/10 04:54:27;;;;;;;37.27;27.07;;;-4.00;99.90;;;;;;4936056;29;20550;-72
2023/02/10 04:56:54;;;;;;;42.67;28.60;;;-4.00;99.90;;;;;;4942686;28;20905;-72
2023/02/10 04:59:21;;;;;;;38.20;27.27;;;-4.00;99.90;;;;;;4944069;28;20949;-72
2023/02/10 05:01:49;;;;;;;35.97;27.83;;;-4.00;99.90;;;;;;4942610;29;20447;-73
2023/02/10 05:04:16;;;;;;;39.23;27.70;;;-4.10;99.90;;;;;;4950505;29;20438;-73
2023/02/10 05:06:43;;;;;;;37.93;27.80;;;-4.10;99.90;;;;;;4943570;28;20474;-73
2023/02/10 05:09:10;;;;;;;42.47;27.67;;;-4.10;99.90;;;;;;4943689;29;20463;-79
2023/02/10 05:11:36;;;;;;;40.20;28.23;;;-4.10;99.90;;;;;;4945325;28;20858;-76
2023/02/10 05:14:03;;;;;;;39.47;26.60;;;-4.10;99.90;;;;;;4942078;29;20824;-75
2023/02/10 05:16:30;;;;;;;39.70;27.80;;;-4.20;99.90;;;;;;4945093;28;20474;-74
2023/02/10 05:18:59;;;;;;;39.03;28.40;;;-4.20;99.90;;;;;;4933437;28;20884;-74
2023/02/10 05:21:25;;;;;;;39.33;28.40;;;-4.20;99.90;;;;;;4931557;29;20462;-74
2023/02/10 05:23:52;;;;;;;42.23;28.97;;;-4.20;99.90;;;;;;4935155;29;20477;-73
2023/02/10 05:26:19;;;;;;;37.30;26.20;;;-4.10;99.90;;;;;;4924611;29;20479;-73
2023/02/10 05:28:46;;;;;;;38.87;29.30;;;-4.20;99.90;;;;;;4917939;29;20827;-74
2023/02/10 05:31:13;;;;;;;41.07;28.13;;;-4.20;99.90;;;;;;4925988;29;20459;-74
2023/02/10 05:33:39;;;;;;;36.93;27.93;;;-4.20;99.90;;;;;;4931634;29;20546;-73
2023/02/10 05:36:08;;;;;;;43.07;28.17;;;-4.20;99.90;;;;;;4932712;29;20493;-74
2023/02/10 05:38:35;;;;;;;34.50;25.83;;;-4.20;99.90;;;;;;4931981;29;20894;-72
2023/02/10 05:41:02;;;;;;;38.73;28.13;;;-4.20;99.90;;;;;;4928644;29;20518;-72
2023/02/10 05:43:29;;;;;;;37.17;27.53;;;-4.30;99.90;;;;;;4935110;29;20446;-73
2023/02/10 05:45:55;;;;;;;39.73;28.40;;;-4.30;99.90;;;;;;4924381;29;20535;-73
2023/02/10 05:48:22;;;;;;;37.17;26.50;;;-4.20;99.90;;;;;;4932324;29;20467;-73
2023/02/10 05:50:51;;;;;;;35.90;26.33;;;-4.30;99.90;;;;;;4941244;29;20470;-74
2023/02/10 05:53:19;;;;;;;37.20;27.03;;;-4.30;99.90;;;;;;4937359;29;20459;-74
2023/02/10 05:55:46;;;;;;;36.53;26.87;;;-4.30;99.90;;;;;;4934776;29;20529;-73
2023/02/10 05:58:13;;;;;;;37.90;28.30;;;-4.40;99.90;;;;;;4932624;29;20910;-76
2023/02/10 06:00:40;;;;;;;37.93;27.37;;;-4.30;99.90;;;;;;4934181;29;20439;-75
2023/02/10 06:03:07;;;;;;;36.70;26.53;;;-4.40;99.90;;;;;;4931282;29;20460;-76
2023/02/10 06:05:34;;;;;;;39.50;27.13;;;-4.40;99.90;;;;;;4914580;29;20500;-76
2023/02/10 06:08:01;;;;;;;38.97;28.27;;;-4.40;99.90;;;;;;4936010;29;20492;-75
2023/02/10 06:10:29;;;;;;;43.57;29.33;;;-4.30;99.90;;;;;;4922663;29;20795;-73
2023/02/10 06:12:55;;;;;;;37.30;27.93;;;-4.20;99.90;;;;;;4944519;28;20848;-73
2023/02/10 06:15:22;;;;;;;35.90;28.67;;;-4.20;99.90;;;;;;4934792;28;20480;-73
2023/02/10 06:17:49;;;;;;;44.47;30.37;;;-4.20;99.90;;;;;;4934419;29;20502;-73
2023/02/10 06:20:16;;;;;;;40.77;29.03;;;-4.20;99.90;;;;;;4941350;29;20452;-73
2023/02/10 06:22:43;;;;;;;37.53;27.07;;;-4.20;99.90;;;;;;4945842;28;20469;-73
2023/02/10 06:25:10;;;;;;;38.47;28.17;;;-4.20;99.90;;;;;;4944228;28;20949;-77
2023/02/10 06:27:38;;;;;;;42.40;27.37;;;-4.20;99.90;;;;;;4939774;29;20848;-81
2023/02/10 06:30:05;;;;;;;40.43;28.80;;;-4.20;99.90;;;;;;4936520;29;20458;-76
2023/02/10 06:32:32;;;;;;;39.37;28.40;;;-4.30;99.90;;;;;;4932610;29;20520;-76
2023/02/10 06:34:59;;;;;;;37.77;28.40;;;-4.30;99.90;;;;;;4942375;29;20478;-72
2023/02/10 06:37:26;;;;;;;44.03;28.97;;;-4.30;99.90;;;;;;4941785;28;20524;-73
2023/02/10 06:39:53;;;;;;;38.10;27.20;;;-4.30;99.90;;;;;;4943850;28;20502;-72
2023/02/10 06:42:19;;;;;;;39.80;27.83;;;-4.20;99.90;;;;;;4942940;28;20834;-76
2023/02/10 06:44:48;;;;;;;41.63;29.23;;;-4.20;99.90;;;;;;4944419;28;20457;-75
2023/02/10 06:47:14;;;;;;;43.20;29.17;;;-4.20;99.90;;;;;;4939225;28;20459;-73
2023/02/10 06:49:41;;;;;;;39.70;27.53;;;-4.10;99.90;;;;;;4922352;29;20455;-73
2023/02/10 06:52:08;;;;;;;38.97;27.97;;;-4.20;99.90;;;;;;4938268;29;20438;-73
2023/02/10 06:54:35;;;;;;;35.67;26.70;;;-4.20;99.90;;;;;;4943053;29;20508;-73
2023/02/10 06:57:02;;;;;;;37.90;27.07;;;-4.20;99.90;;;;;;4938167;29;20492;-73
2023/02/10 06:59:28;;;;;;;43.90;29.67;;;-4.20;99.90;;;;;;4942091;29;20942;-73
2023/02/10 07:02:00;;;;;;;44.07;29.40;;;-4.20;99.90;;;;;;4945099;28;20449;-73
2023/02/10 07:04:27;;;;;;;38.83;28.20;;;-4.20;99.90;;;;;;4945065;28;20456;-77
2023/02/10 07:06:54;;;;;;;41.93;29.63;;;-4.10;99.90;;;;;;4952493;29;20525;-76
2023/02/10 07:09:21;;;;;;;40.47;30.53;;;-4.00;99.90;;;;;;4943966;28;20510;-75
2023/02/10 07:11:48;;;;;;;42.87;29.17;;;-4.00;99.90;;;;;;4929155;28;20487;-74
2023/02/10 07:14:15;;;;;;;42.40;30.30;;;-4.00;99.90;;;;;;4932772;29;20502;-73
2023/02/10 07:16:42;;;;;;;39.73;28.07;;;-3.90;99.90;;;;;;4933699;29;20486;-73
2023/02/10 07:19:10;;;;;;;35.47;28.03;;;-3.80;99.90;;;;;;4926087;29;20515;-73
2023/02/10 07:21:38;;;;;;;39.70;29.47;;;-3.80;99.90;;;;;;4926066;29;20463;-73
2023/02/10 07:24:05;;;;;;;37.77;26.67;;;-3.80;99.90;;;;;;4935773;29;20967;-73
2023/02/10 07:26:32;;;;;;;50.10;35.17;;;-3.70;99.90;;;;;;4935475;29;20521;-73
2023/02/10 07:28:59;;;;;;;43.80;31.20;;;-3.60;99.90;;;;;;4941806;29;20450;-74
2023/02/10 07:31:26;;;;;;;42.77;28.97;;;-3.60;99.90;;;;;;4947948;29;20497;-73
2023/02/10 07:33:53;;;;;;;45.50;32.07;;;-3.50;99.90;;;;;;4949274;28;20435;-74
2023/02/10 07:36:21;;;;;;;47.37;33.17;;;-3.40;99.90;;;;;;4946932;29;20479;-74
2023/02/10 07:38:47;;;;;;;44.97;31.73;;;-3.30;99.90;;;;;;4946996;28;20896;-73
2023/02/10 07:41:14;;;;;;;38.43;30.03;;;-3.20;99.90;;;;;;4946294;29;20439;-73
2023/02/10 07:43:41;;;;;;;44.03;32.10;;;-3.10;99.90;;;;;;4938163;28;20545;-73
2023/02/10 07:46:14;;;;;;;39.83;29.53;;;-2.90;99.90;;;;;;4933009;29;20486;-74
2023/02/10 07:48:41;;;;;;;40.73;29.50;;;-2.70;99.90;;;;;;4935506;29;20439;-74
2023/02/10 07:51:10;;;;;;;40.00;29.40;;;-2.40;99.90;;;;;;4928702;29;20509;-74
2023/02/10 07:53:39;;;;;;;40.57;28.67;;;-2.20;99.90;;;;;;4934907;29;20462;-73
2023/02/10 07:56:06;;;;;;;41.70;30.50;;;-1.90;99.90;;;;;;4946010;28;20849;-74
2023/02/10 07:58:33;;;;;;;37.23;29.33;;;-1.80;99.90;;;;;;4947213;29;20450;-77
2023/02/10 08:01:00;;;;;;;36.53;28.27;;;-1.50;99.90;;;;;;4947780;28;20501;-80
2023/02/10 08:03:27;;;;;;;38.93;29.60;;;-1.30;99.90;;;;;;4936066;29;20474;-77
2023/02/10 08:05:54;;;;;;;35.80;28.87;;;-1.10;99.90;;;;;;4949673;28;20462;-76
2023/02/10 08:08:20;;;;;;;38.07;28.70;;;-0.80;99.90;;;;;;4944902;28;20831;-76
2023/02/10 08:10:51;;;;;;;36.90;28.80;;;-0.60;99.90;;;;;;4948229;29;20464;-76
2023/02/10 08:13:18;;;;;;;36.93;29.27;;;-0.30;99.90;;;;;;4946462;28;20936;-77
2023/02/10 08:15:45;;;;;;;36.87;29.87;;;-0.10;99.90;;;;;;4951754;28;20482;-77
2023/02/10 08:18:11;;;;;;;41.13;30.33;;;0.20;99.90;;;;;;4934172;28;20545;-77
2023/02/10 08:20:41;;;;;;;36.07;29.07;;;0.50;99.90;;;;;;4925937;29;20512;-76
2023/02/10 08:23:13;;;;;;;35.73;27.90;;;0.80;99.90;;;;;;4934621;29;20557;-77
2023/02/10 08:25:40;;;;;;;36.63;28.97;;;1.00;99.90;;;;;;4934983;28;20518;-76
2023/02/10 08:28:08;;;;;;;37.53;29.33;;;1.30;99.90;;;;;;4933483;28;20473;-76
2023/02/10 08:30:36;;;;;;;41.47;30.97;;;1.40;99.90;;;;;;4934263;29;20840;-77
2023/02/10 08:33:03;;;;;;;36.10;29.40;;;1.60;99.90;;;;;;4942566;29;20456;-77
2023/02/10 08:35:30;;;;;;;36.00;30.10;;;1.80;99.90;;;;;;4942982;29;20478;-77
2023/02/10 08:37:57;;;;;;;35.90;29.30;;;2.00;99.90;;;;;;4947986;29;20864;-75
2023/02/10 08:40:23;;;;;;;33.63;28.80;;;2.30;99.90;;;;;;4942268;28;20494;-77
2023/02/10 08:42:51;;;;;;;35.10;27.83;;;2.50;99.90;;;;;;4948721;29;20203;-81
2023/02/10 08:45:20;;;;;;;36.13;29.10;;;2.80;99.90;;;;;;4944491;28;20203;-76
2023/02/10 08:47:47;;;;;;;32.13;27.97;;;2.90;99.90;;;;;;4945191;29;20210;-81
2023/02/10 08:50:14;;;;;;;37.43;28.93;;;3.10;99.90;;;;;;4930758;28;20206;-76
2023/02/10 08:52:41;;;;;;;32.47;28.43;;;3.20;99.90;;;;;;4924448;29;20211;-77
2023/02/10 08:55:08;;;;;;;34.07;28.97;;;3.50;99.90;;;;;;4925779;28;20231;-76
2023/02/10 08:57:36;;;;;;;35.77;28.43;;;3.60;99.90;;;;;;4943177;28;20223;-78
2023/02/10 09:00:04;;;;;;;35.70;28.63;;;3.20;99.90;;;;;;4935466;29;20223;-78
2023/02/10 09:02:32;;;;;;;35.60;29.40;;;3.40;99.90;;;;;;4936253;29;20205;-74
2023/02/10 09:04:59;;;;;;;34.63;28.57;;;3.60;99.90;;;;;;4950534;29;20663;-75
2023/02/10 09:07:26;;;;;;;32.80;28.10;;;3.60;99.90;;;;;;4942722;28;20282;-76
2023/02/10 09:09:53;;;;;;;33.97;26.47;;;3.70;99.90;;;;;;4942481;29;20271;-75
2023/02/10 09:12:20;;;;;;;31.20;26.67;;;3.80;99.90;;;;;;4949047;29;20253;-75
2023/02/10 09:14:47;;;;;;;32.20;27.07;;;4.00;99.90;;;;;;4945111;29;20203;-75
2023/02/10 09:17:14;;;;;;;31.83;25.50;;;4.00;99.90;;;;;;4983282;23;20733;-78
2023/02/10 09:19:42;;;;;;;31.53;26.67;;;4.10;99.90;;;;;;4954240;28;20231;-77
2023/02/10 09:22:09;;;;;;;32.77;27.70;;;4.20;99.90;;;;;;4967849;28;20693;-78
2023/02/10 09:24:36;;;;;;;30.03;26.63;;;4.30;99.90;;;;;;4958636;28;20198;-77
2023/02/10 09:27:02;;;;;;;30.50;26.37;;;4.40;99.90;;;;;;4946677;28;20719;-77
2023/02/10 09:29:29;;;;;;;32.90;26.87;;;4.50;99.90;;;;;;4947360;28;20282;-77
2023/02/10 09:31:57;;;;;;;32.50;28.07;;;4.40;99.90;;;;;;4937922;29;20282;-78
2023/02/10 09:34:23;;;;;;;30.53;25.80;;;4.50;99.90;;;;;;4949016;29;20258;-78
2023/02/10 09:36:55;;;;;;;30.00;26.03;;;4.70;99.90;;;;;;4943331;28;20310;-79
2023/02/10 09:39:22;;;;;;;31.27;26.93;;;4.80;99.90;;;;;;4950696;29;20455;-77
2023/02/10 09:41:56;;;;;;;33.60;28.67;;;4.80;99.90;;;;;;4941845;29;20227;-78
2023/02/10 09:44:27;;;;;;;35.23;28.67;;;4.70;99.90;;;;;;4944222;28;20206;-78
2023/02/10 09:47:17;;;;;;;32.00;27.27;;;4.80;99.90;;;;;;4941271;28;20247;-79
2023/02/10 09:50:04;;;;;;;31.80;27.67;;;4.80;99.90;;;;;;4935840;29;20204;-78
2023/02/10 09:52:43;;;;;;;33.50;26.67;;;4.80;99.90;;;;;;4943270;28;20600;-78
2023/02/10 09:55:15;;;;;;;33.67;27.83;;;4.80;99.90;;;;;;4947919;29;20198;-78
2023/02/10 09:57:45;;;;;;;36.00;28.70;;;4.70;99.90;;;;;;4943145;29;20278;-78
2023/02/10 10:00:23;;;;;;;34.87;27.63;;;4.70;99.90;;;;;;4943209;29;20255;-78
2023/02/10 10:02:53;;;;;;;33.27;27.90;;;4.40;99.90;;;;;;4944756;29;20208;-78
2023/02/10 10:05:28;;;;;;;31.23;25.37;;;4.40;99.90;;;;;;4945252;29;20203;-78
2023/02/10 10:07:58;;;;;;;33.73;27.30;;;4.40;99.90;;;;;;4944481;28;20592;-78
2023/02/10 10:10:29;;;;;;;31.70;26.13;;;4.40;99.90;;;;;;4942243;29;20672;-78
2023/02/10 10:12:56;;;;;;;32.83;27.20;;;4.20;99.90;;;;;;4941754;29;20201;-78
2023/02/10 10:15:32;;;;;;;37.40;29.00;;;4.20;99.90;;;;;;4944599;29;20235;-78
2023/02/10 10:18:05;;;;;;;34.07;27.00;;;4.00;99.90;;;;;;4945507;29;20215;-78
2023/02/10 10:20:51;;;;;;;31.17;27.00;;;3.90;99.90;;;;;;4938528;29;20631;-78
2023/02/10 10:23:46;;;;;;;34.83;25.77;;;3.90;99.90;;;;;;4944129;29;20209;-78
2023/02/10 10:26:29;;;;;;;37.67;28.90;;;3.80;99.90;;;;;;4942519;28;20245;-78
2023/02/10 10:29:08;;;;;;;29.70;26.20;;;3.70;99.90;;;;;;4941370;29;20195;-77
2023/02/10 10:31:38;;;;;;;33.77;26.80;;;3.60;99.90;;;;;;4938025;29;20735;-78
2023/02/10 10:34:13;;;;;;;31.93;26.20;;;3.60;99.90;;;;;;4945799;29;20549;-78
2023/02/10 10:36:44;;;;;;;28.37;24.93;;;3.60;99.90;;;;;;4941966;29;20218;-78
2023/02/10 10:39:17;;;;;;;32.03;26.43;;;3.70;99.90;;;;;;4938225;28;20640;-78
2023/02/10 10:41:46;;;;;;;31.57;26.50;;;3.70;99.90;;;;;;4939612;28;20210;-78
2023/02/10 10:44:16;;;;;;;30.30;25.57;;;3.70;99.90;;;;;;4942641;29;20360;-78
2023/02/10 10:46:47;;;;;;;28.43;24.60;;;3.80;99.90;;;;;;4943256;28;20265;-78
2023/02/10 10:49:14;;;;;;;33.40;27.20;;;3.90;99.90;;;;;;4943863;29;20246;-78
2023/02/10 10:51:41;;;;;;;32.80;26.47;;;3.90;99.90;;;;;;4941690;29;20278;-78
2023/02/10 10:54:17;;;;;;;33.47;26.73;;;4.00;99.90;;;;;;4943348;29;20667;-78
2023/02/10 10:56:48;;;;;;;30.53;24.60;;;4.00;99.90;;;;;;4943921;28;20637;-78
2023/02/10 10:59:18;;;;;;;32.17;25.27;;;4.00;99.90;;;;;;4948203;29;20202;-77
2023/02/10 11:01:47;;;;;;;31.53;27.07;;;4.00;99.90;;;;;;4946620;29;20202;-78
2023/02/10 11:04:16;;;;;;;31.07;25.70;;;4.00;99.90;;;;;;4942436;28;20633;-77
2023/02/10 11:06:48;;;;;;;33.07;26.33;;;4.10;99.90;;;;;;4945496;28;20222;-83
2023/02/10 11:09:24;;;;;;;29.90;24.87;;;4.10;99.90;;;;;;4948665;29;20251;-80
2023/02/10 11:11:52;;;;;;;34.37;26.50;;;4.10;99.90;;;;;;4947307;28;20257;-82
2023/02/10 11:14:23;;;;;;;28.47;24.27;;;4.10;99.90;;;;;;4949416;29;20199;-83
2023/02/10 11:16:52;;;;;;;32.23;24.90;;;4.20;99.90;;;;;;4940629;28;20230;-82
2023/02/10 11:19:25;;;;;;;33.33;26.07;;;4.20;99.90;;;;;;4938443;29;20669;-80
2023/02/10 11:21:52;;;;;;;32.10;26.13;;;4.20;99.90;;;;;;4945196;29;20233;-80
2023/02/10 11:24:23;;;;;;;33.13;25.87;;;4.20;99.90;;;;;;4945428;28;20303;-81
2023/02/10 11:27:03;;;;;;;30.97;25.93;;;4.20;99.90;;;;;;4943735;29;20621;-80
2023/02/10 11:29:32;;;;;;;32.20;26.27;;;4.10;99.90;;;;;;4944740;29;20743;-77
2023/02/10 11:31:59;;;;;;;30.33;25.03;;;4.10;99.90;;;;;;4949567;29;20195;-77
2023/02/10 11:34:29;;;;;;;30.53;24.83;;;4.10;99.90;;;;;;4949767;29;20198;-82
2023/02/10 11:36:58;;;;;;;30.37;24.30;;;4.10;99.90;;;;;;4948399;28;20223;-81
2023/02/10 11:39:34;;;;;;;28.17;23.37;;;4.20;99.90;;;;;;4946804;28;20253;-80
2023/02/10 11:42:08;;;;;;;31.33;24.83;;;4.20;99.90;;;;;;4941332;28;20234;-82
2023/02/10 11:44:35;;;;;;;29.87;24.70;;;4.30;99.90;;;;;;4948245;29;20202;-82
2023/02/10 11:47:05;;;;;;;31.83;25.17;;;4.20;99.90;;;;;;4948580;28;20227;-77
2023/02/10 11:49:36;;;;;;;28.47;23.40;;;4.30;99.90;;;;;;4948713;29;20605;-77
2023/02/10 11:52:05;;;;;;;25.97;23.17;;;4.30;99.90;;;;;;4947157;28;20210;-77
2023/02/10 11:54:35;;;;;;;27.33;23.03;;;4.30;99.90;;;;;;4949027;29;20226;-77
2023/02/10 12:00:11;;;;;;;23.77;21.27;;;4.40;99.90;;;;;;4941540;29;20315;-77
2023/02/10 12:02:59;;;;;;;23.50;21.00;;;4.40;99.90;;;;;;4949974;28;20211;-77
2023/02/10 12:05:31;;;;;;;23.63;20.97;;;4.40;99.90;;;;;;4941037;29;20210;-77
2023/02/10 12:08:09;;;;;;;22.77;20.33;;;4.40;99.90;;;;;;4935070;29;20258;-77
2023/02/10 12:10:44;;;;;;;24.77;21.23;;;4.50;99.90;;;;;;4924727;29;20259;-77
2023/02/10 12:13:20;;;;;;;23.17;20.67;;;4.50;99.90;;;;;;4948920;29;20226;-77
2023/02/10 12:15:54;;;;;;;23.23;20.60;;;4.50;99.90;;;;;;4944663;29;20227;-77
2023/02/10 12:18:35;;;;;;;21.33;18.70;;;4.60;99.90;;;;;;4945770;29;20229;-77
2023/02/10 12:21:24;;;;;;;24.73;21.23;;;4.60;99.90;;;;;;4947241;28;20215;-77
2023/02/10 12:24:11;;;;;;;24.60;20.17;;;4.60;99.90;;;;;;4945010;29;20203;-77
2023/02/10 12:26:46;;;;;;;23.23;20.13;;;4.70;99.90;;;;;;4941618;28;20226;-77
2023/02/10 12:29:24;;;;;;;22.03;19.67;;;4.70;99.90;;;;;;4951935;29;20722;-77
2023/02/10 12:32:00;;;;;;;19.80;17.73;;;4.70;99.90;;;;;;4944201;29;20203;-76
2023/02/10 12:34:46;;;;;;;21.03;19.00;;;4.70;99.90;;;;;;4932340;29;20606;-76
2023/02/10 12:37:26;;;;;;;19.60;17.57;;;4.70;99.90;;;;;;4944014;28;20211;-76
2023/02/10 12:39:59;;;;;;;20.50;17.40;;;4.80;99.90;;;;;;4945716;28;20238;-77
2023/02/10 12:42:41;;;;;;;19.60;17.60;;;4.80;99.90;;;;;;4947756;29;20573;-77
2023/02/10 12:45:17;;;;;;;19.90;17.87;;;4.90;99.90;;;;;;4939785;28;20207;-77
2023/02/10 12:47:53;;;;;;;21.03;18.43;;;4.90;99.90;;;;;;4941461;29;20227;-77
2023/02/10 12:50:37;;;;;;;19.33;17.33;;;4.90;99.90;;;;;;4946063;29;20199;-77
2023/02/10 12:53:09;;;;;;;20.50;17.93;;;4.90;99.90;;;;;;4948133;28;20195;-77
2023/02/10 12:55:43;;;;;;;20.20;18.00;;;4.90;99.90;;;;;;4941461;28;20214;-77
2023/02/10 12:58:17;;;;;;;19.80;17.70;;;5.00;99.90;;;;;;4945979;28;20219;-77
2023/02/10 13:00:50;;;;;;;21.90;18.73;;;5.00;99.90;;;;;;4946617;28;20202;-77
2023/02/10 13:03:22;;;;;;;20.07;18.00;;;5.00;99.90;;;;;;4946884;28;20258;-77
2023/02/10 13:05:54;;;;;;;20.07;17.97;;;5.10;99.90;;;;;;4947698;28;20214;-77
2023/02/10 13:08:25;;;;;;;20.23;18.10;;;5.10;99.90;;;;;;4939904;29;20207;-77
2023/02/10 13:10:57;;;;;;;20.57;18.43;;;5.10;99.90;;;;;;4946945;28;20258;-78
2023/02/10 13:13:27;;;;;;;20.23;18.13;;;5.10;99.90;;;;;;4945238;28;20271;-81
2023/02/10 13:15:59;;;;;;;21.17;18.87;;;5.10;99.90;;;;;;4942430;29;20282;-77
2023/02/10 13:18:28;;;;;;;22.37;19.00;;;5.10;99.90;;;;;;4947468;28;20219;-78
2023/02/10 13:21:05;;;;;;;22.27;19.87;;;5.20;99.90;;;;;;4946084;29;20561;-78
2023/02/10 13:23:39;;;;;;;21.33;18.97;;;5.30;99.90;;;;;;4947288;29;20330;-78
2023/02/10 13:26:22;;;;;;;22.03;18.87;;;5.30;99.90;;;;;;4938460;28;20225;-82
2023/02/10 13:29:02;;;;;;;20.63;18.53;;;5.20;99.90;;;;;;4935393;29;20203;-80
2023/02/10 13:31:44;;;;;;;23.23;18.90;;;5.30;99.90;;;;;;4928698;29;20574;-78
2023/02/10 13:34:19;;;;;;;19.87;17.87;;;5.30;99.90;;;;;;4943123;29;20677;-76
2023/02/10 13:36:49;;;;;;;19.77;17.67;;;5.40;99.90;;;;;;4948111;28;20269;-76
2023/02/10 13:39:19;;;;;;;19.57;17.60;;;5.40;99.90;;;;;;4935204;29;20713;-77
2023/02/10 13:41:50;;;;;;;19.33;17.33;;;5.50;99.90;;;;;;4945058;28;20211;-77
2023/02/10 13:44:23;;;;;;;19.67;17.13;;;5.40;99.90;;;;;;4947437;28;20211;-80
2023/02/10 13:46:55;;;;;;;18.17;16.37;;;5.40;99.90;;;;;;4947843;28;20297;-86
2023/02/10 13:49:23;;;;;;;19.17;17.27;;;5.40;99.90;;;;;;4947697;28;20220;-82
2023/02/10 13:51:59;;;;;;;18.27;16.30;;;5.40;99.90;;;;;;4947613;28;20569;-83
2023/02/10 13:54:29;;;;;;;18.47;16.53;;;5.50;99.90;;;;;;4944596;28;20213;-78
2023/02/10 13:56:58;;;;;;;19.73;17.60;;;5.40;99.90;;;;;;4949561;28;20298;-78
2023/02/10 13:59:36;;;;;;;20.17;17.70;;;5.50;99.90;;;;;;4944261;28;20692;-78
2023/02/10 14:02:20;;;;;;;19.53;17.43;;;5.50;99.90;;;;;;4951250;29;20249;-82
2023/02/10 14:04:49;;;;;;;18.97;17.07;;;5.50;99.90;;;;;;4932926;29;20212;-78
2023/02/10 14:07:32;;;;;;;18.30;16.43;;;5.50;99.90;;;;;;4930831;29;20222;-77
2023/02/10 14:10:07;;;;;;;19.00;16.63;;;5.50;99.90;;;;;;4933545;29;20240;-77
2023/02/10 14:12:36;;;;;;;20.57;18.47;;;5.50;99.90;;;;;;4937542;29;20589;-77
2023/02/10 14:15:32;;;;;;;21.30;17.70;;;5.50;99.90;;;;;;4933472;28;20295;-78
2023/02/10 14:18:03;;;;;;;19.73;17.60;;;5.50;99.90;;;;;;4912065;29;20240;-77
2023/02/10 14:20:34;;;;;;;19.80;17.80;;;5.50;99.90;;;;;;4923570;29;20215;-77
2023/02/10 14:23:01;;;;;;;19.37;17.30;;;5.50;99.90;;;;;;4935547;29;20195;-77
2023/02/10 14:25:36;;;;;;;20.00;17.43;;;5.50;99.90;;;;;;4938955;29;20287;-77
2023/02/10 14:28:04;;;;;;;18.70;16.77;;;5.50;99.90;;;;;;4949116;29;20194;-78
2023/02/10 14:30:43;;;;;;;19.43;17.43;;;5.50;99.90;;;;;;4944449;29;20211;-78
2023/02/10 14:33:21;;;;;;;19.03;17.13;;;5.50;99.90;;;;;;4952620;29;20644;-77
2023/02/10 14:35:52;;;;;;;18.80;16.90;;;5.50;99.90;;;;;;4946581;29;20227;-77
2023/02/10 14:38:22;;;;;;;17.57;15.83;;;5.50;99.90;;;;;;4954118;29;20210;-78
2023/02/10 14:40:50;;;;;;;18.67;16.80;;;5.50;99.90;;;;;;4944280;29;20238;-78
2023/02/10 14:43:22;;;;;;;21.03;18.83;;;5.60;99.90;;;;;;4947862;29;20278;-78
2023/02/10 14:45:50;;;;;;;21.03;18.87;;;5.60;99.90;;;;;;4924978;29;20220;-78
2023/02/10 14:48:21;;;;;;;21.00;18.73;;;5.50;99.90;;;;;;4933295;29;20196;-78
2023/02/10 14:51:08;;;;;;;23.30;19.47;;;5.50;99.90;;;;;;4938644;29;20204;-78
2023/02/10 14:53:39;;;;;;;22.77;19.37;;;5.50;99.90;;;;;;4938447;29;20214;-78
2023/02/10 14:56:06;;;;;;;24.43;19.47;;;5.50;99.90;;;;;;4947499;28;20220;-78
2023/02/10 14:58:33;;;;;;;24.60;19.87;;;5.50;99.90;;;;;;4948634;28;20249;-81
2023/02/10 15:01:16;;;;;;;23.37;20.60;;;5.50;99.90;;;;;;4949353;28;20740;-79
2023/02/10 15:03:43;;;;;;;26.63;20.90;;;5.50;99.90;;;;;;4939999;29;20206;-79
2023/02/10 15:06:10;;;;;;;24.47;19.93;;;5.50;99.90;;;;;;4947705;28;20226;-79
2023/02/10 15:08:43;;;;;;;24.27;20.97;;;5.50;99.90;;;;;;4948633;28;20641;-79
2023/02/10 15:11:16;;;;;;;25.13;20.97;;;5.50;99.90;;;;;;4945123;28;20208;-77
2023/02/10 15:13:47;;;;;;;24.17;20.33;;;5.50;99.90;;;;;;4937757;29;20217;-78
2023/02/10 15:16:18;;;;;;;26.13;21.50;;;5.50;99.90;;;;;;4938335;29;20712;-79
2023/02/10 15:18:48;;;;;;;27.87;22.60;;;5.40;99.90;;;;;;4946651;29;20285;-79
2023/02/10 15:21:33;;;;;;;21.67;19.37;;;5.40;99.90;;;;;;4943168;29;20250;-78
2023/02/10 15:24:01;;;;;;;26.07;21.37;;;5.40;99.90;;;;;;4940756;29;20272;-79
2023/02/10 15:26:28;;;;;;;26.33;21.43;;;5.30;99.90;;;;;;4935797;29;20321;-79
2023/02/10 15:29:03;;;;;;;26.23;20.37;;;5.30;99.90;;;;;;4948179;28;20274;-78
2023/02/10 15:31:32;;;;;;;25.40;20.97;;;5.20;99.90;;;;;;4936380;29;20198;-78
2023/02/10 15:34:00;;;;;;;26.50;20.93;;;5.20;99.90;;;;;;4940969;28;20259;-78
2023/02/10 15:36:28;;;;;;;23.73;20.53;;;5.10;99.90;;;;;;4932504;29;20347;-81
2023/02/10 15:39:00;;;;;;;26.87;21.03;;;5.00;99.90;;;;;;4944830;29;20273;-78
2023/02/10 15:41:45;;;;;;;24.17;20.63;;;5.00;99.90;;;;;;4944074;28;20283;-78
2023/02/10 15:44:31;;;;;;;25.73;22.00;;;4.90;99.90;;;;;;4952451;29;20257;-78
2023/02/10 15:47:19;;;;;;;26.07;22.07;;;4.80;99.90;;;;;;4936023;29;20724;-83
2023/02/10 15:49:47;;;;;;;24.97;20.93;;;4.70;99.90;;;;;;4940910;28;20204;-78
2023/02/10 15:52:17;;;;;;;23.87;20.50;;;4.60;99.90;;;;;;4935589;29;20724;-78